Terminal Aerodrome Forecast
Issued by NWS Lubbock, TX

Home | Current Version | Previous Version | Text Only | Print | Product List | Glossary On
Versions: 1 2 3 4 5 6 7 8 9 10 11 12 13 14 15 16 17 18 19 20 21 22 23 24 25 26 27 28 29
000
FTUS44 KLUB 241200 AAA
TAFLBB
TAF AMD
KLBB 241213Z 2412/2512 18010KT P6SM OVC008
     FM241300 19011KT P6SM SCT008 BKN010
     FM241500 20011KT P6SM SCT025 SCT120
     FM241800 22013G18KT P6SM SCT080 SCT150
     FM250200 20010KT P6SM FEW100 SCT200=

USA.gov is the U.S. government's official web portal to all federal, state and local government web resources and services.